sensor_id;sensor_type;location;lat;lon;timestamp;P1;durP1;ratioP1;P2;durP2;ratioP2
1164;SDS011;571;50.930;6.926;2024-03-06T00:01:15;36.33;;;24.63;;
1164;SDS011;571;50.930;6.926;2024-03-06T00:06:57;33.00;;;25.17;;
1164;SDS011;571;50.930;6.926;2024-03-06T00:09:41;39.20;;;24.80;;
1164;SDS011;571;50.930;6.926;2024-03-06T00:12:31;31.93;;;25.13;;
1164;SDS011;571;50.930;6.926;2024-03-06T00:15:16;35.97;;;26.47;;
1164;SDS011;571;50.930;6.926;2024-03-06T00:17:51;37.50;;;26.40;;
1164;SDS011;571;50.930;6.926;2024-03-06T00:23:19;37.37;;;27.13;;
1164;SDS011;571;50.930;6.926;2024-03-06T00:25:50;37.50;;;28.70;;
1164;SDS011;571;50.930;6.926;2024-03-06T00:28:38;37.00;;;27.17;;
1164;SDS011;571;50.930;6.926;2024-03-06T00:34:12;37.70;;;26.00;;
1164;SDS011;571;50.930;6.926;2024-03-06T00:36:44;32.93;;;24.90;;
1164;SDS011;571;50.930;6.926;2024-03-06T00:39:34;38.00;;;26.43;;
1164;SDS011;571;50.930;6.926;2024-03-06T00:42:16;35.90;;;25.87;;
1164;SDS011;571;50.930;6.926;2024-03-06T00:45:19;37.43;;;27.50;;
1164;SDS011;571;50.930;6.926;2024-03-06T00:48:09;36.30;;;25.07;;
1164;SDS011;571;50.930;6.926;2024-03-06T00:50:56;35.50;;;27.43;;
1164;SDS011;571;50.930;6.926;2024-03-06T00:56:47;32.30;;;26.53;;
1164;SDS011;571;50.930;6.926;2024-03-06T00:59:56;37.60;;;28.90;;
1164;SDS011;571;50.930;6.926;2024-03-06T01:02:59;33.33;;;27.03;;
1164;SDS011;571;50.930;6.926;2024-03-06T01:05:36;38.80;;;26.93;;
1164;SDS011;571;50.930;6.926;2024-03-06T01:11:25;37.70;;;27.87;;
1164;SDS011;571;50.930;6.926;2024-03-06T01:14:08;36.97;;;26.73;;
1164;SDS011;571;50.930;6.926;2024-03-06T01:16:59;32.63;;;26.10;;
1164;SDS011;571;50.930;6.926;2024-03-06T01:23:00;30.70;;;23.13;;
1164;SDS011;571;50.930;6.926;2024-03-06T01:25:58;35.10;;;27.47;;
1164;SDS011;571;50.930;6.926;2024-03-06T01:28:47;31.80;;;24.83;;
1164;SDS011;571;50.930;6.926;2024-03-06T01:31:43;29.20;;;23.20;;
1164;SDS011;571;50.930;6.926;2024-03-06T01:37:12;31.07;;;24.23;;
1164;SDS011;571;50.930;6.926;2024-03-06T01:39:55;34.37;;;24.13;;
1164;SDS011;571;50.930;6.926;2024-03-06T01:42:42;28.30;;;23.60;;
1164;SDS011;571;50.930;6.926;2024-03-06T01:45:21;34.70;;;24.33;;
1164;SDS011;571;50.930;6.926;2024-03-06T01:48:16;31.60;;;23.97;;
1164;SDS011;571;50.930;6.926;2024-03-06T01:50:57;34.77;;;24.50;;
1164;SDS011;571;50.930;6.926;2024-03-06T01:53:36;29.90;;;24.00;;
1164;SDS011;571;50.930;6.926;2024-03-06T01:56:14;32.07;;;23.43;;
1164;SDS011;571;50.930;6.926;2024-03-06T01:58:49;29.83;;;24.43;;
1164;SDS011;571;50.930;6.926;2024-03-06T02:01:36;31.23;;;22.40;;
1164;SDS011;571;50.930;6.926;2024-03-06T02:04:19;23.67;;;20.13;;
1164;SDS011;571;50.930;6.926;2024-03-06T02:07:03;26.83;;;21.03;;
1164;SDS011;571;50.930;6.926;2024-03-06T02:09:40;30.87;;;22.43;;
1164;SDS011;571;50.930;6.926;2024-03-06T02:12:18;27.83;;;22.10;;
1164;SDS011;571;50.930;6.926;2024-03-06T02:14:52;34.50;;;24.37;;
1164;SDS011;571;50.930;6.926;2024-03-06T02:17:45;29.77;;;22.27;;
1164;SDS011;571;50.930;6.926;2024-03-06T02:20:23;32.47;;;24.33;;
1164;SDS011;571;50.930;6.926;2024-03-06T02:23:02;30.50;;;23.27;;
1164;SDS011;571;50.930;6.926;2024-03-06T02:26:08;31.00;;;23.50;;
1164;SDS011;571;50.930;6.926;2024-03-06T02:29:01;31.20;;;22.40;;
1164;SDS011;571;50.930;6.926;2024-03-06T02:31:36;29.90;;;23.03;;
1164;SDS011;571;50.930;6.926;2024-03-06T02:34:29;30.90;;;22.40;;
1164;SDS011;571;50.930;6.926;2024-03-06T02:37:13;34.83;;;22.70;;
1164;SDS011;571;50.930;6.926;2024-03-06T02:39:51;30.60;;;23.73;;
1164;SDS011;571;50.930;6.926;2024-03-06T02:42:35;33.10;;;23.30;;
1164;SDS011;571;50.930;6.926;2024-03-06T02:45:40;27.87;;;22.73;;
1164;SDS011;571;50.930;6.926;2024-03-06T02:48:19;28.87;;;23.00;;
1164;SDS011;571;50.930;6.926;2024-03-06T03:04:01;28.13;;;20.80;;
1164;SDS011;571;50.930;6.926;2024-03-06T03:06:53;28.23;;;20.37;;
1164;SDS011;571;50.930;6.926;2024-03-06T03:10:02;23.47;;;18.57;;
1164;SDS011;571;50.930;6.926;2024-03-06T03:13:19;23.70;;;18.30;;
1164;SDS011;571;50.930;6.926;2024-03-06T03:19:40;23.37;;;17.43;;
1164;SDS011;571;50.930;6.926;2024-03-06T03:22:22;19.87;;;17.50;;
1164;SDS011;571;50.930;6.926;2024-03-06T03:25:28;24.40;;;18.40;;
1164;SDS011;571;50.930;6.926;2024-03-06T03:28:09;19.47;;;17.03;;
1164;SDS011;571;50.930;6.926;2024-03-06T03:31:01;23.20;;;17.40;;
1164;SDS011;571;50.930;6.926;2024-03-06T03:34:05;23.17;;;16.90;;
1164;SDS011;571;50.930;6.926;2024-03-06T03:39:42;16.97;;;15.17;;
1164;SDS011;571;50.930;6.926;2024-03-06T03:42:25;22.37;;;16.43;;
1164;SDS011;571;50.930;6.926;2024-03-06T03:45:23;17.57;;;13.73;;
1164;SDS011;571;50.930;6.926;2024-03-06T03:48:04;14.70;;;13.07;;
1164;SDS011;571;50.930;6.926;2024-03-06T03:50:44;12.13;;;10.83;;
1164;SDS011;571;50.930;6.926;2024-03-06T03:53:25;12.40;;;9.37;;
1164;SDS011;571;50.930;6.926;2024-03-06T03:56:03;14.33;;;11.07;;
1164;SDS011;571;50.930;6.926;2024-03-06T03:58:44;10.53;;;8.27;;
1164;SDS011;571;50.930;6.926;2024-03-06T04:01:34;9.77;;;8.77;;
1164;SDS011;571;50.930;6.926;2024-03-06T04:04:21;16.00;;;9.20;;
1164;SDS011;571;50.930;6.926;2024-03-06T04:12:53;7.23;;;6.30;;
1164;SDS011;571;50.930;6.926;2024-03-06T04:15:33;12.97;;;8.10;;
1164;SDS011;571;50.930;6.926;2024-03-06T04:18:15;11.23;;;8.60;;
1164;SDS011;571;50.930;6.926;2024-03-06T04:21:02;10.47;;;9.00;;
1164;SDS011;571;50.930;6.926;2024-03-06T04:23:53;8.77;;;7.83;;
1164;SDS011;571;50.930;6.926;2024-03-06T04:29:15;8.53;;;6.63;;
1164;SDS011;571;50.930;6.926;2024-03-06T04:32:15;6.77;;;6.00;;
1164;SDS011;571;50.930;6.926;2024-03-06T04:35:03;8.80;;;6.37;;
1164;SDS011;571;50.930;6.926;2024-03-06T04:38:03;6.17;;;5.20;;
1164;SDS011;571;50.930;6.926;2024-03-06T04:40:47;7.80;;;5.33;;
1164;SDS011;571;50.930;6.926;2024-03-06T04:43:28;7.40;;;4.97;;
1164;SDS011;571;50.930;6.926;2024-03-06T04:46:12;5.70;;;5.20;;
1164;SDS011;571;50.930;6.926;2024-03-06T04:51:44;5.40;;;4.80;;
1164;SDS011;571;50.930;6.926;2024-03-06T04:54:26;6.50;;;5.07;;
1164;SDS011;571;50.930;6.926;2024-03-06T05:00:24;5.10;;;4.60;;
1164;SDS011;571;50.930;6.926;2024-03-06T05:03:20;5.40;;;4.90;;
1164;SDS011;571;50.930;6.926;2024-03-06T05:06:19;4.83;;;4.40;;
1164;SDS011;571;50.930;6.926;2024-03-06T05:09:15;4.33;;;3.97;;
1164;SDS011;571;50.930;6.926;2024-03-06T05:12:13;4.53;;;4.13;;
1164;SDS011;571;50.930;6.926;2024-03-06T05:14:50;5.70;;;5.10;;
1164;SDS011;571;50.930;6.926;2024-03-06T05:17:50;6.50;;;4.63;;
1164;SDS011;571;50.930;6.926;2024-03-06T05:20:45;4.87;;;4.47;;
1164;SDS011;571;50.930;6.926;2024-03-06T05:23:52;8.47;;;4.70;;
1164;SDS011;571;50.930;6.926;2024-03-06T05:26:49;6.50;;;5.20;;
1164;SDS011;571;50.930;6.926;2024-03-06T05:29:53;6.30;;;5.40;;
1164;SDS011;571;50.930;6.926;2024-03-06T05:35:48;5.30;;;4.80;;
1164;SDS011;571;50.930;6.926;2024-03-06T05:38:28;6.27;;;4.93;;
1164;SDS011;571;50.930;6.926;2024-03-06T05:41:11;7.20;;;4.80;;
1164;SDS011;571;50.930;6.926;2024-03-06T05:43:45;6.50;;;4.43;;
1164;SDS011;571;50.930;6.926;2024-03-06T05:46:26;5.47;;;5.00;;
1164;SDS011;571;50.930;6.926;2024-03-06T05:49:21;5.73;;;5.17;;
1164;SDS011;571;50.930;6.926;2024-03-06T05:59:00;9.30;;;4.80;;
1164;SDS011;571;50.930;6.926;2024-03-06T06:05:44;5.40;;;4.90;;
1164;SDS011;571;50.930;6.926;2024-03-06T06:09:05;6.57;;;5.17;;
1164;SDS011;571;50.930;6.926;2024-03-06T06:12:32;5.23;;;4.73;;
1164;SDS011;571;50.930;6.926;2024-03-06T06:15:22;8.03;;;4.43;;
1164;SDS011;571;50.930;6.926;2024-03-06T06:18:08;6.23;;;5.60;;
1164;SDS011;571;50.930;6.926;2024-03-06T06:21:02;6.30;;;5.70;;
1164;SDS011;571;50.930;6.926;2024-03-06T06:23:44;5.10;;;4.47;;
1164;SDS011;571;50.930;6.926;2024-03-06T06:26:55;6.83;;;5.27;;
1164;SDS011;571;50.930;6.926;2024-03-06T06:32:46;7.80;;;5.10;;
1164;SDS011;571;50.930;6.926;2024-03-06T06:35:43;5.30;;;4.80;;
1164;SDS011;571;50.930;6.926;2024-03-06T06:38:50;6.10;;;5.50;;
1164;SDS011;571;50.930;6.926;2024-03-06T06:41:17;5.23;;;4.73;;
1164;SDS011;571;50.930;6.926;2024-03-06T06:44:03;9.87;;;5.83;;
1164;SDS011;571;50.930;6.926;2024-03-06T06:46:43;9.70;;;5.93;;
1164;SDS011;571;50.930;6.926;2024-03-06T06:49:37;9.43;;;6.50;;
1164;SDS011;571;50.930;6.926;2024-03-06T06:52:16;9.17;;;5.77;;
1164;SDS011;571;50.930;6.926;2024-03-06T06:54:52;9.27;;;7.37;;
1164;SDS011;571;50.930;6.926;2024-03-06T07:00:37;8.03;;;5.80;;
1164;SDS011;571;50.930;6.926;2024-03-06T07:10:10;5.37;;;4.33;;
1164;SDS011;571;50.930;6.926;2024-03-06T07:16:58;6.80;;;5.50;;
1164;SDS011;571;50.930;6.926;2024-03-06T07:23:08;9.10;;;5.10;;
1164;SDS011;571;50.930;6.926;2024-03-06T07:28:47;7.17;;;5.73;;
1164;SDS011;571;50.930;6.926;2024-03-06T07:31:41;7.67;;;5.83;;
1164;SDS011;571;50.930;6.926;2024-03-06T07:34:21;5.47;;;4.97;;
1164;SDS011;571;50.930;6.926;2024-03-06T07:37:05;6.43;;;5.33;;
1164;SDS011;571;50.930;6.926;2024-03-06T07:39:44;5.43;;;4.93;;
1164;SDS011;571;50.930;6.926;2024-03-06T07:42:42;5.80;;;5.30;;
1164;SDS011;571;50.930;6.926;2024-03-06T07:46:15;6.47;;;5.87;;
1164;SDS011;571;50.930;6.926;2024-03-06T07:48:45;10.13;;;5.90;;
1164;SDS011;571;50.930;6.926;2024-03-06T07:51:17;6.20;;;5.60;;
1164;SDS011;571;50.930;6.926;2024-03-06T07:54:03;6.20;;;5.40;;
1164;SDS011;571;50.930;6.926;2024-03-06T07:56:46;6.43;;;5.27;;
1164;SDS011;571;50.930;6.926;2024-03-06T08:07:05;6.87;;;5.93;;
1164;SDS011;571;50.930;6.926;2024-03-06T08:18:28;6.00;;;5.40;;
1164;SDS011;571;50.930;6.926;2024-03-06T08:19:25;9.37;;;5.93;;
1164;SDS011;571;50.930;6.926;2024-03-06T08:22:40;7.40;;;5.77;;
1164;SDS011;571;50.930;6.926;2024-03-06T08:25:41;7.67;;;6.90;;
1164;SDS011;571;50.930;6.926;2024-03-06T08:28:50;7.93;;;6.77;;
1164;SDS011;571;50.930;6.926;2024-03-06T08:41:42;8.80;;;7.90;;
1164;SDS011;571;50.930;6.926;2024-03-06T08:44:35;10.93;;;8.80;;
1164;SDS011;571;50.930;6.926;2024-03-06T08:47:24;11.30;;;7.77;;
1164;SDS011;571;50.930;6.926;2024-03-06T08:50:03;13.30;;;9.70;;
1164;SDS011;571;50.930;6.926;2024-03-06T08:52:39;10.97;;;9.17;;
1164;SDS011;571;50.930;6.926;2024-03-06T09:28:28;10.23;;;9.17;;
1164;SDS011;571;50.930;6.926;2024-03-06T10:09:26;12.87;;;11.37;;
1164;SDS011;571;50.930;6.926;2024-03-06T10:15:57;11.67;;;9.93;;
1164;SDS011;571;50.930;6.926;2024-03-06T10:42:12;11.93;;;9.90;;
1164;SDS011;571;50.930;6.926;2024-03-06T10:45:33;11.10;;;9.70;;
1164;SDS011;571;50.930;6.926;2024-03-06T10:48:22;10.50;;;9.40;;
1164;SDS011;571;50.930;6.926;2024-03-06T10:54:26;16.53;;;11.60;;
1164;SDS011;571;50.930;6.926;2024-03-06T10:57:21;12.13;;;10.23;;
1164;SDS011;571;50.930;6.926;2024-03-06T11:00:20;14.90;;;11.23;;
1164;SDS011;571;50.930;6.926;2024-03-06T11:06:53;11.73;;;10.27;;
1164;SDS011;571;50.930;6.926;2024-03-06T11:10:13;14.33;;;11.80;;
1164;SDS011;571;50.930;6.926;2024-03-06T11:12:58;11.77;;;10.13;;
1164;SDS011;571;50.930;6.926;2024-03-06T11:47:42;21.47;;;14.00;;
1164;SDS011;571;50.930;6.926;2024-03-06T11:57:33;16.00;;;14.33;;
1164;SDS011;571;50.930;6.926;2024-03-06T13:20:32;14.67;;;10.70;;
1164;SDS011;571;50.930;6.926;2024-03-06T13:23:51;11.00;;;8.70;;
1164;SDS011;571;50.930;6.926;2024-03-06T17:28:06;23.60;;;17.33;;
1164;SDS011;571;50.930;6.926;2024-03-06T19:00:41;33.80;;;30.20;;
1164;SDS011;571;50.930;6.926;2024-03-06T19:16:38;35.43;;;30.50;;
